logo dgac
Martes 16 de Julio del 2019
Buscar por aerodromo o helipuerto
Ingrese nombre de aeródromo, localidad o designador OACI:
TAF: TAF SCVD 161121Z 1612/1700 01003KT 0600 FG BKN002 OVC005 TN04/1612Z TX10/1619Z BECMG 1613/1615 35005KT 4000 -RA OVC010 BECMG 1623/1624 35012KT 3000 RA OVC004
TAF del 16/07/2019 a las 11:21 UTC
Período de validez: desde el 16 a las 12:00 UTC hasta el 17 a las 00:00 UTC
Viento: dirección 010 grados, velocidad 3 nudos
Visibilidad: 600 metros
Niebla
Nubes: Nublado a 200 pies sobre el nivel del aeródromo
Nubes: Cubierto a 500 pies sobre el nivel del aeródromo
Temperatura mínima: 4ºC el 16 a las 12:00 UTC
Temperatura máxima: 10ºC el 16 a las 19:00 UTC
Se espera un cambio entre las 13:00 UTC del 16 y las 15:00 UTC del 16, :
Viento: dirección 350 grados, velocidad 5 nudos
Visibilidad: 4000 metros
Débil Lluvia
Nubes: Cubierto a 1000 pies sobre el nivel del aeródromo
Se espera un cambio entre las 23:00 UTC del 16 y las 24:00 UTC del 16, :
Viento: dirección 350 grados, velocidad 12 nudos
Visibilidad: 3000 metros
Lluvia
Nubes: Cubierto a 400 pies sobre el nivel del aeródromo